ADDS TAF Board (Experimental) INFO Settings
IDs: Format: Expanded Condensed

KSEA - Seattle-Tacoma Intl, WA, US

Issued at 1502 UTC 28 May 2016
Updated at: 1601 UTC 28 May 2016
Time1553Z 28/17Z 28/18Z 28/19Z 28/20Z 28/21Z 28/22Z 28/23Z 29/00Z 29/01Z 29/02Z 29/03Z 29/04Z 29/05Z
Type OBS PRVL
  [TEMP]  
PRVL
  [TEMP]  
PRVL PRVL PRVL PRVL PRVL PRVL PRVL PRVL PRVL PRVL PRVL
VIS 10 >6
  [3]  
>6
  [3]  
>6 >6 >6 >6 >6 >6 >6 >6 >6 >6 >6
CIG 18 24
  [15]  
24
  [15]  
30 30 30 35 35 35 35 35 35 35 35
Cover OVC OVC
  [OVC]  
OVC
  [OVC]  
OVC OVC OVC OVC OVC OVC OVC OVC OVC OVC OVC
FltCat MVFR MVFR
  [MVFR]  
MVFR
  [MVFR]  
MVFR MVFR MVFR VFR VFR VFR VFR VFR VFR VFR VFR
WX -- --
  [-DZ BR]  
--
  [-DZ BR]  
-RA -RA -RA VCSH VCSH VCSH VCSH VCSH VCSH VCSH --
WDir 160 160
[160]
160
[160]
190 190 190 200 200 200 200 200 200 200 200
WSpd 8 9
  [9]  
9
  [9]  
13 13 13 14 14 14 14 14 14 14 10
WGst -- --
  [--]  
--
  [--]  
-- -- -- 22 22 22 22 22 22 22 --
R16/34
XWnd 3 3 3 -2 -2 -2 -5 -5 -5 -5 -5 -5 -5 -3
XGst -- 0 0 -- -- -- -8 -8 -8 -8 -8 -8 -8 --
HWnd 8 8 8 13 13 13 13 13 13 13 13 13 13 9
HGst -- 0 0 -- -- -- 21 21 21 21 21 21 21 --

NOTE: TEMPO conditions in [brackets]. Keep in mind TEMPO conditions might be better (lower impact) than prevailing conditions.

Raw TAF
KSEA 281502Z 2815/2918 16009KT P6SM SCT015 BKN024 OVC035
  TEMPO 2815/2819 3SM -DZ BR BKN015 OVC024
  FM281900 19013KT P6SM -RA BKN030 OVC050
  FM282200 20014G22KT P6SM VCSH BKN035 OVC050
  FM290500 20010KT P6SM OVC035
  FM291200 20007KT P6SM OVC022


Raw METAR
KSEA 281553Z 16008KT 10SM OVC018 11/08 A3008 RMK AO2 DZE12 SLP194 P0001 T01110083 $
KSEA 281453Z 16009KT 3SM -DZ BR FEW017 OVC024 10/08 A3009 RMK AO2 DZB50 SLP196 P0000 60002 T01000083 56005 $
KSEA 281417Z 15008KT 10SM BKN028 OVC033 10/08 A3009 RMK AO2 T01000078 $
KSEA 281353Z 16008KT 10SM SCT028 OVC036 10/08 A3009 RMK AO2 RAE1254 SLP197 P0000 T01000078 $

METAR Board
Radar Display
Forecast Discussion

TAF Board Legend

Potential Impact
Threat None Slight Moderate High
Visibility (sm) ≥5.1 5.1>X≥3 3>X≥1 <1
Ceiling (100 ft) ≥30.1 30.1>X≥10 10>X≥5 <5
Wind Speed (kt) <10 10≤X<20 20≤X<30 ≥30
Wind Gust (kt) <15 15≤X<25 25≤X<35 ≥35
Weather No Wx Reported VCTS,-TS,-FZRA,SN TS,FZRA +TS,+FZRA,+SN